Azul Frontier — HPES — position and weather

sailwx.info

Track history (hours):
 
Tides and Currents Weather Stations Pressure Air Temp Water Temp Dewpoint Dewpoint Depression Visibility Wind Speed Wind Dir Waves Ship Positions

Azul Frontier

Last reported at 2018-Feb-23 05:00 UTC. Time now 2018-Feb-23 05:10 UTC.
Position N 46°05' W 001°53'.

Length 106 m; draft 4.5 m.

Type: Ship (hazmat cat A). MMSI: 374159000.

Date/timePositionNaut miles runAvg speedWind from/ knotsBaromVisibWave heightAir tempDewpointWater temp
2018-Feb-23 05:00N 46°05' W 001°53'  
2018-Feb-20 15:43N 39°46' W 009°51'210.3
2018-Feb-20 15:30N 39°44' W 009°50'1010.2
2018-Feb-20 14:29N 39°33' W 009°50'610.2
2018-Feb-20 13:56N 39°28' W 009°49'410.3
2018-Feb-20 13:30N 39°23' W 009°50'510.3
2018-Feb-20 13:00N 39°18' W 009°50'510.1
2018-Feb-20 12:30N 39°13' W 009°50'5 9.8
2018-Feb-20 12:00N 39°08' W 009°50'510.4
2018-Feb-20 11:30N 39°03' W 009°50'510.2
2018-Feb-20 11:00N 38°58' W 009°50'510.1
2018-Feb-20 10:30N 38°53' W 009°50'5 9.5
2018-Feb-20 10:00N 38°48' W 009°50'5 9.7
2018-Feb-20 09:30N 38°43' W 009°50'510.0
2018-Feb-20 09:00N 38°38' W 009°50'5 9.9
2018-Feb-20 08:30N 38°33' W 009°50'5 9.6
2018-Feb-20 08:00N 38°29' W 009°50'5 9.6
2018-Feb-20 07:30N 38°24' W 009°49'5 9.6
2018-Feb-20 07:00N 38°19' W 009°49'5 9.8
2018-Feb-20 06:30N 38°14' W 009°50'510.0
2018-Feb-20 06:00N 38°09' W 009°51'510.6
2018-Feb-20 05:30N 38°04' W 009°52'510.3
2018-Feb-20 05:00N 37°59' W 009°54'510.2
2018-Feb-20 04:30N 37°54' W 009°57'5 9.8
2018-Feb-20 03:59N 37°50' W 009°60'6 9.5
2018-Feb-20 03:18N 37°45' W 010°05'3 9.2
2018-Feb-20 02:56N 37°42' W 010°08'  
2018-Feb-17 20:38N 28°49' W 015°03'211.5
2018-Feb-17 20:27N 28°47' W 015°04'511.5
2018-Feb-17 20:00N 28°42' W 015°06'611.3
2018-Feb-17 19:29N 28°37' W 015°09'611.6
2018-Feb-17 19:00N 28°32' W 015°12'611.7
2018-Feb-17 18:30N 28°26' W 015°15'611.6
2018-Feb-17 18:00N 28°21' W 015°17'611.6
2018-Feb-17 17:30N 28°16' W 015°19'511.0
2018-Feb-17 17:00N 28°11' W 015°22'4 8.7
2018-Feb-17 16:30N 28°07' W 015°25'1 2.0
2018-Feb-17 15:56N 28°09' W 015°25'0 0.0
2018-Feb-17 15:26N 28°09' W 015°25'0 0.0
2018-Feb-17 14:56N 28°09' W 015°25'0 0.0
2018-Feb-17 14:26N 28°09' W 015°25'0 0.0
2018-Feb-17 13:59N 28°09' W 015°25'0 0.0
2018-Feb-17 13:26N 28°09' W 015°25'0 0.0
2018-Feb-17 12:59N 28°09' W 015°25'0 0.0
2018-Feb-17 12:29N 28°09' W 015°25'0 0.0
2018-Feb-17 11:59N 28°09' W 015°25'0 0.0
2018-Feb-17 11:28N 28°09' W 015°25'0 0.0
2018-Feb-17 10:59N 28°09' W 015°25'0 0.0
2018-Feb-17 10:29N 28°09' W 015°25'0 0.0
2018-Feb-17 09:56N 28°09' W 015°25'0 0.0
2018-Feb-17 09:29N 28°09' W 015°25'0 0.0
2018-Feb-17 08:59N 28°09' W 015°25'0 0.0
2018-Feb-17 08:29N 28°09' W 015°25'0 0.0
2018-Feb-17 07:59N 28°09' W 015°25'0 0.0
2018-Feb-17 07:29N 28°09' W 015°25'0 0.0
2018-Feb-17 06:59N 28°09' W 015°25'1 2.1
2018-Feb-17 06:30N 28°08' W 015°25'1 1.6
2018-Feb-17 05:54N 28°09' W 015°25'0 0.0
2018-Feb-17 05:24N 28°09' W 015°25'0 0.1
2018-Feb-17 04:54N 28°09' W 015°25'0 0.1
2018-Feb-17 04:24N 28°09' W 015°25'0 0.0
2018-Feb-17 03:57N 28°09' W 015°25'0 0.0
2018-Feb-17 03:27N 28°09' W 015°25'0 0.0
2018-Feb-17 02:57N 28°09' W 015°25'0 0.0
2018-Feb-17 02:27N 28°09' W 015°25'0 0.0
2018-Feb-17 01:57N 28°09' W 015°25'0 0.0
2018-Feb-17 01:27N 28°09' W 015°25'0 0.0
2018-Feb-17 01:00N 28°09' W 015°25'0 0.0
2018-Feb-17 00:30N 28°09' W 015°25'0 0.0
2018-Feb-17 00:00N 28°09' W 015°25'0 0.0
2018-Feb-16 23:30N 28°09' W 015°25'0 0.0
2018-Feb-16 23:00N 28°09' W 015°25'0 0.0
2018-Feb-16 22:30N 28°09' W 015°25'0 0.0
2018-Feb-16 22:00N 28°09' W 015°25'0 0.0
2018-Feb-16 21:30N 28°09' W 015°25'0 0.0
2018-Feb-16 21:00N 28°09' W 015°25'0 0.0
2018-Feb-16 20:30N 28°09' W 015°25'0 0.0
2018-Feb-16 20:00N 28°09' W 015°25'0 0.0
2018-Feb-16 19:30N 28°09' W 015°25'0 0.0
2018-Feb-16 19:00N 28°09' W 015°25'0 0.0
2018-Feb-16 18:21N 28°09' W 015°25'0 0.0
2018-Feb-16 18:00N 28°09' W 015°25'0 0.0
2018-Feb-16 17:21N 28°09' W 015°25'0 0.0
2018-Feb-16 16:54N 28°09' W 015°25'0 0.0
2018-Feb-16 16:24N 28°09' W 015°25'0 0.0
2018-Feb-16 15:54N 28°09' W 015°25'0 0.0
2018-Feb-16 15:24N 28°09' W 015°25'0 0.0
2018-Feb-16 14:54N 28°09' W 015°25'0 0.0
2018-Feb-16 14:24N 28°09' W 015°25'0 0.0
2018-Feb-16 13:54N 28°09' W 015°25'0 0.0
2018-Feb-16 13:24N 28°09' W 015°25'0 0.0
2018-Feb-16 12:57N 28°09' W 015°25'0 0.0
2018-Feb-16 12:27N 28°09' W 015°25'0 0.0
2018-Feb-16 11:57N 28°09' W 015°25'0 0.0
2018-Feb-16 11:27N 28°09' W 015°25'0 0.0
2018-Feb-16 11:00N 28°09' W 015°25'0 0.0
2018-Feb-16 10:30N 28°09' W 015°25'0 0.0
2018-Feb-16 10:00N 28°09' W 015°25'0 0.0
2018-Feb-16 09:30N 28°09' W 015°25'0 0.0
2018-Feb-16 09:00N 28°09' W 015°25'0 0.0
2018-Feb-16 08:30N 28°09' W 015°25'0 0.0
2018-Feb-16 08:00N 28°09' W 015°25'0 0.0
2018-Feb-16 07:30N 28°09' W 015°25'0 0.0
2018-Feb-16 07:00N 28°09' W 015°25'0 0.0
2018-Feb-16 06:30N 28°09' W 015°25'0 0.0
2018-Feb-16 06:00N 28°09' W 015°25'0 0.0
2018-Feb-16 05:30N 28°09' W 015°25'0 0.0
2018-Feb-16 04:51N 28°09' W 015°25'0 0.0
2018-Feb-16 04:21N 28°09' W 015°25'0 0.0
2018-Feb-16 03:51N 28°09' W 015°25'0 0.0
2018-Feb-16 03:21N 28°09' W 015°25'0 0.0
2018-Feb-16 02:51N 28°09' W 015°25'0 0.0
2018-Feb-16 02:24N 28°09' W 015°25'0 0.0
2018-Feb-16 01:54N 28°09' W 015°25'0 0.0
2018-Feb-16 01:24N 28°09' W 015°25'0 0.0
2018-Feb-16 00:54N 28°09' W 015°25'0 0.0
2018-Feb-16 00:24N 28°09' W 015°25'0 0.0
2018-Feb-15 23:57N 28°09' W 015°25'0 0.0
2018-Feb-15 23:27N 28°09' W 015°25'0 0.0
2018-Feb-15 22:57N 28°09' W 015°25'0 0.0
2018-Feb-15 22:27N 28°09' W 015°25'0 0.0
2018-Feb-15 21:57N 28°09' W 015°25'0 0.0
2018-Feb-15 21:30N 28°09' W 015°25'0 0.0
2018-Feb-15 21:00N 28°09' W 015°25'0 0.0
2018-Feb-15 20:30N 28°09' W 015°25'0 0.0
2018-Feb-15 20:00N 28°09' W 015°25'0 0.0
2018-Feb-15 19:30N 28°09' W 015°25'0 0.0
2018-Feb-15 19:00N 28°09' W 015°25'0 0.0
2018-Feb-15 18:30N 28°09' W 015°25'0 0.0
2018-Feb-15 18:00N 28°09' W 015°25'0 0.0
2018-Feb-15 17:30N 28°09' W 015°25'0 0.0
2018-Feb-15 17:00N 28°09' W 015°25'0 0.0
2018-Feb-15 16:30N 28°09' W 015°25'0 0.0
2018-Feb-15 16:00N 28°09' W 015°25'0 0.0
2018-Feb-15 15:30N 28°09' W 015°25'0 0.0
2018-Feb-15 15:00N 28°09' W 015°25'0 0.0
2018-Feb-15 14:21N 28°09' W 015°25'0 0.0
2018-Feb-15 13:51N 28°09' W 015°25'0 0.0
2018-Feb-15 13:21N 28°09' W 015°25'0 0.0
2018-Feb-15 12:54N 28°09' W 015°25'0 0.0
2018-Feb-15 12:24N 28°09' W 015°25'0 0.0
2018-Feb-15 11:54N 28°09' W 015°25'0 0.0
2018-Feb-15 11:24N 28°09' W 015°25'0 0.0
2018-Feb-15 10:54N 28°09' W 015°25'0 0.0
2018-Feb-15 10:24N 28°09' W 015°25'0 0.0
2018-Feb-15 09:54N 28°09' W 015°25'0 0.0
2018-Feb-15 09:27N 28°09' W 015°25'0 0.0
2018-Feb-15 08:57N 28°09' W 015°25'0 0.0
2018-Feb-15 08:27N 28°09' W 015°25'0 0.0
2018-Feb-15 07:54N 28°09' W 015°25'0 0.0
2018-Feb-15 07:27N 28°09' W 015°25'0 0.0
2018-Feb-15 07:00N 28°09' W 015°25'0 0.0
2018-Feb-15 06:24N 28°09' W 015°25'0 0.0
2018-Feb-15 06:00N 28°09' W 015°25'0 0.0
2018-Feb-15 05:30N 28°09' W 015°25'0 0.0
2018-Feb-15 05:00N 28°09' W 015°25'0 0.0
2018-Feb-15 04:30N 28°09' W 015°25'0 0.0
2018-Feb-15 04:00N 28°09' W 015°25'0 0.0
2018-Feb-15 03:27N 28°09' W 015°25'0 0.0
2018-Feb-15 03:00N 28°09' W 015°25'0 0.0
2018-Feb-15 02:30N 28°09' W 015°25'0 0.0
2018-Feb-15 02:00N 28°09' W 015°25'0 0.0
2018-Feb-15 01:30N 28°09' W 015°25'0 0.0
2018-Feb-15 01:00N 28°09' W 015°25'0 0.0
2018-Feb-15 00:30N 28°09' W 015°25'0 0.0
2018-Feb-14 23:51N 28°09' W 015°25'0 0.0
2018-Feb-14 23:21N 28°09' W 015°25'0 0.0
2018-Feb-14 22:48N 28°09' W 015°25'0 0.0
2018-Feb-14 22:21N 28°09' W 015°25'0 0.0
2018-Feb-14 21:54N 28°09' W 015°25'0 0.0
2018-Feb-14 21:24N 28°09' W 015°25'0 0.0
2018-Feb-14 20:54N 28°09' W 015°25'0 0.0
2018-Feb-14 20:24N 28°09' W 015°25'0 0.0
2018-Feb-14 19:57N 28°09' W 015°25'0 0.0
2018-Feb-14 19:27N 28°09' W 015°25'0 0.0
2018-Feb-14 18:57N 28°09' W 015°25'0 0.0
2018-Feb-14 18:27N 28°09' W 015°25'0 0.0
2018-Feb-14 17:57N 28°09' W 015°25'0 0.0
2018-Feb-14 17:27N 28°09' W 015°25'0 0.0
2018-Feb-14 17:00N 28°09' W 015°25'0 0.0
2018-Feb-14 16:30N 28°09' W 015°25'0 0.0
2018-Feb-14 16:00N 28°09' W 015°25'0 0.0
2018-Feb-14 15:30N 28°09' W 015°25'0 0.0
2018-Feb-14 15:00N 28°09' W 015°25'0 0.0
2018-Feb-14 14:30N 28°09' W 015°25'0 0.0
2018-Feb-14 14:00N 28°09' W 015°25'0 0.0
2018-Feb-14 13:30N 28°09' W 015°25'0 0.0
2018-Feb-14 13:00N 28°09' W 015°25'0 0.0
2018-Feb-14 12:30N 28°09' W 015°25'0 0.0
2018-Feb-14 12:00N 28°09' W 015°25'0 0.0
2018-Feb-14 11:30N 28°09' W 015°25'0 0.0
2018-Feb-14 11:00N 28°09' W 015°25'0 0.0
2018-Feb-14 10:30N 28°09' W 015°25'0 0.0
2018-Feb-14 09:51N 28°09' W 015°25'0 0.0
2018-Feb-14 09:21N 28°09' W 015°25'0 0.0
2018-Feb-14 08:54N 28°09' W 015°25'0 0.0
2018-Feb-14 08:24N 28°09' W 015°25'0 0.0
2018-Feb-14 07:54N 28°09' W 015°25'0 0.0
2018-Feb-14 07:24N 28°09' W 015°25'0 0.0
2018-Feb-14 06:54N 28°09' W 015°25'0 0.0
2018-Feb-14 06:21N 28°09' W 015°25'0 0.0
2018-Feb-14 05:54N 28°09' W 015°25'0 0.0
2018-Feb-14 05:27N 28°09' W 015°25'0 0.0
2018-Feb-14 04:57N 28°09' W 015°25'0 0.0
2018-Feb-14 04:27N 28°09' W 015°25'0 0.0
2018-Feb-14 03:57N 28°09' W 015°25'0 0.0
2018-Feb-14 03:30N 28°09' W 015°25'0 0.0
2018-Feb-14 03:00N 28°09' W 015°25'0 0.0
2018-Feb-14 02:30N 28°09' W 015°25'0 0.0
2018-Feb-14 02:00N 28°09' W 015°25'0 0.0
2018-Feb-14 01:30N 28°09' W 015°25'0 0.0
2018-Feb-14 01:00N 28°09' W 015°25'0 0.0
2018-Feb-14 00:30N 28°09' W 015°25'0 0.0
2018-Feb-14 00:00N 28°09' W 015°25'0 0.0
2018-Feb-13 23:30N 28°09' W 015°25'0 0.0
2018-Feb-13 23:00N 28°09' W 015°25'0 0.0
2018-Feb-13 22:30N 28°09' W 015°25'0 0.0
2018-Feb-13 22:00N 28°09' W 015°25'0 0.0
2018-Feb-13 21:30N 28°09' W 015°25'0 0.0
2018-Feb-13 21:00N 28°09' W 015°25'0 0.0
2018-Feb-13 20:30N 28°09' W 015°25'0 0.0
2018-Feb-13 19:51N 28°09' W 015°25'0 0.0
2018-Feb-13 19:21N 28°09' W 015°25'0 0.0
2018-Feb-13 18:51N 28°09' W 015°25'0 0.0
2018-Feb-13 18:24N 28°09' W 015°25'0 0.0
2018-Feb-13 17:54N 28°09' W 015°25'0 0.0
2018-Feb-13 17:24N 28°09' W 015°25'0 0.0
2018-Feb-13 16:54N 28°09' W 015°25'0 0.0
2018-Feb-13 16:24N 28°09' W 015°25'0 0.0
2018-Feb-13 15:57N 28°09' W 015°25'0 0.0
2018-Feb-13 15:27N 28°09' W 015°25'0 0.0
2018-Feb-13 14:57N 28°09' W 015°25'0 0.0
2018-Feb-13 14:27N 28°09' W 015°25'0 0.0
2018-Feb-13 13:57N 28°09' W 015°25'0 0.0
2018-Feb-13 13:27N 28°09' W 015°25'0 0.0
2018-Feb-13 13:00N 28°09' W 015°25'0 0.0
2018-Feb-13 12:30N 28°09' W 015°25'0 0.0
2018-Feb-13 12:00N 28°09' W 015°25'0 0.0
2018-Feb-13 11:30N 28°09' W 015°25'0 0.0
2018-Feb-13 11:00N 28°09' W 015°25'0 0.0
2018-Feb-13 10:30N 28°09' W 015°25'0 0.0
2018-Feb-13 10:00N 28°09' W 015°25'0 0.0
2018-Feb-13 09:30N 28°09' W 015°25'0 0.0
2018-Feb-13 09:00N 28°09' W 015°25'0 0.0
2018-Feb-13 08:30N 28°09' W 015°25'0 0.0
2018-Feb-13 08:00N 28°09' W 015°25'0 0.0
2018-Feb-13 07:30N 28°09' W 015°25'0 0.0
2018-Feb-13 07:00N 28°09' W 015°25'0 0.0
2018-Feb-13 06:30N 28°09' W 015°25'0 0.0
2018-Feb-13 06:00N 28°09' W 015°25'0 0.0
2018-Feb-13 05:30N 28°09' W 015°25'  
Track history (hours):
 
Tides and Currents Weather Stations Pressure Air Temp Water Temp Dewpoint Dewpoint Depression Visibility Wind Speed Wind Dir Waves Ship Positions

Azul Frontier

Last reported at 2018-Feb-23 05:00 UTC. Time now 2018-Feb-23 05:10 UTC.
Position N 46°05' W 001°53'.

Length 106 m; draft 4.5 m.

Type: Ship (hazmat cat A). MMSI: 374159000.

Date/timePositionNaut miles runAvg speedWind from/ knotsBaromVisibWave heightAir tempDewpointWater temp
2018-Feb-23 05:00N 46°05' W 001°53'  
2018-Feb-20 15:43N 39°46' W 009°51'210.3
2018-Feb-20 15:30N 39°44' W 009°50'1010.2
2018-Feb-20 14:29N 39°33' W 009°50'610.2
2018-Feb-20 13:56N 39°28' W 009°49'410.3
2018-Feb-20 13:30N 39°23' W 009°50'510.3
2018-Feb-20 13:00N 39°18' W 009°50'510.1
2018-Feb-20 12:30N 39°13' W 009°50'5 9.8
2018-Feb-20 12:00N 39°08' W 009°50'510.4
2018-Feb-20 11:30N 39°03' W 009°50'510.2
2018-Feb-20 11:00N 38°58' W 009°50'510.1
2018-Feb-20 10:30N 38°53' W 009°50'5 9.5
2018-Feb-20 10:00N 38°48' W 009°50'5 9.7
2018-Feb-20 09:30N 38°43' W 009°50'510.0
2018-Feb-20 09:00N 38°38' W 009°50'5 9.9
2018-Feb-20 08:30N 38°33' W 009°50'5 9.6
2018-Feb-20 08:00N 38°29' W 009°50'5 9.6
2018-Feb-20 07:30N 38°24' W 009°49'5 9.6
2018-Feb-20 07:00N 38°19' W 009°49'5 9.8
2018-Feb-20 06:30N 38°14' W 009°50'510.0
2018-Feb-20 06:00N 38°09' W 009°51'510.6
2018-Feb-20 05:30N 38°04' W 009°52'510.3
2018-Feb-20 05:00N 37°59' W 009°54'510.2
2018-Feb-20 04:30N 37°54' W 009°57'5 9.8
2018-Feb-20 03:59N 37°50' W 009°60'6 9.5
2018-Feb-20 03:18N 37°45' W 010°05'3 9.2
2018-Feb-20 02:56N 37°42' W 010°08'  
2018-Feb-17 20:38N 28°49' W 015°03'211.5
2018-Feb-17 20:27N 28°47' W 015°04'511.5
2018-Feb-17 20:00N 28°42' W 015°06'611.3
2018-Feb-17 19:29N 28°37' W 015°09'611.6
2018-Feb-17 19:00N 28°32' W 015°12'611.7
2018-Feb-17 18:30N 28°26' W 015°15'611.6
2018-Feb-17 18:00N 28°21' W 015°17'611.6
2018-Feb-17 17:30N 28°16' W 015°19'511.0
2018-Feb-17 17:00N 28°11' W 015°22'4 8.7
2018-Feb-17 16:30N 28°07' W 015°25'1 2.0
2018-Feb-17 15:56N 28°09' W 015°25'0 0.0
2018-Feb-17 15:26N 28°09' W 015°25'0 0.0
2018-Feb-17 14:56N 28°09' W 015°25'0 0.0
2018-Feb-17 14:26N 28°09' W 015°25'0 0.0
2018-Feb-17 13:59N 28°09' W 015°25'0 0.0
2018-Feb-17 13:26N 28°09' W 015°25'0 0.0
2018-Feb-17 12:59N 28°09' W 015°25'0 0.0
2018-Feb-17 12:29N 28°09' W 015°25'0 0.0
2018-Feb-17 11:59N 28°09' W 015°25'0 0.0
2018-Feb-17 11:28N 28°09' W 015°25'0 0.0
2018-Feb-17 10:59N 28°09' W 015°25'0 0.0
2018-Feb-17 10:29N 28°09' W 015°25'0 0.0
2018-Feb-17 09:56N 28°09' W 015°25'0 0.0
2018-Feb-17 09:29N 28°09' W 015°25'0 0.0
2018-Feb-17 08:59N 28°09' W 015°25'0 0.0
2018-Feb-17 08:29N 28°09' W 015°25'0 0.0
2018-Feb-17 07:59N 28°09' W 015°25'0 0.0
2018-Feb-17 07:29N 28°09' W 015°25'0 0.0
2018-Feb-17 06:59N 28°09' W 015°25'1 2.1
2018-Feb-17 06:30N 28°08' W 015°25'1 1.6
2018-Feb-17 05:54N 28°09' W 015°25'0 0.0
2018-Feb-17 05:24N 28°09' W 015°25'0 0.1
2018-Feb-17 04:54N 28°09' W 015°25'0 0.1
2018-Feb-17 04:24N 28°09' W 015°25'0 0.0
2018-Feb-17 03:57N 28°09' W 015°25'0 0.0
2018-Feb-17 03:27N 28°09' W 015°25'0 0.0
2018-Feb-17 02:57N 28°09' W 015°25'0 0.0
2018-Feb-17 02:27N 28°09' W 015°25'0 0.0
2018-Feb-17 01:57N 28°09' W 015°25'0 0.0
2018-Feb-17 01:27N 28°09' W 015°25'0 0.0
2018-Feb-17 01:00N 28°09' W 015°25'0 0.0
2018-Feb-17 00:30N 28°09' W 015°25'0 0.0
2018-Feb-17 00:00N 28°09' W 015°25'0 0.0
2018-Feb-16 23:30N 28°09' W 015°25'0 0.0
2018-Feb-16 23:00N 28°09' W 015°25'0 0.0
2018-Feb-16 22:30N 28°09' W 015°25'0 0.0
2018-Feb-16 22:00N 28°09' W 015°25'0 0.0
2018-Feb-16 21:30N 28°09' W 015°25'0 0.0
2018-Feb-16 21:00N 28°09' W 015°25'0 0.0
2018-Feb-16 20:30N 28°09' W 015°25'0 0.0
2018-Feb-16 20:00N 28°09' W 015°25'0 0.0
2018-Feb-16 19:30N 28°09' W 015°25'0 0.0
2018-Feb-16 19:00N 28°09' W 015°25'0 0.0
2018-Feb-16 18:21N 28°09' W 015°25'0 0.0
2018-Feb-16 18:00N 28°09' W 015°25'0 0.0
2018-Feb-16 17:21N 28°09' W 015°25'0 0.0
2018-Feb-16 16:54N 28°09' W 015°25'0 0.0
2018-Feb-16 16:24N 28°09' W 015°25'0 0.0
2018-Feb-16 15:54N 28°09' W 015°25'0 0.0
2018-Feb-16 15:24N 28°09' W 015°25'0 0.0
2018-Feb-16 14:54N 28°09' W 015°25'0 0.0
2018-Feb-16 14:24N 28°09' W 015°25'0 0.0
2018-Feb-16 13:54N 28°09' W 015°25'0 0.0
2018-Feb-16 13:24N 28°09' W 015°25'0 0.0
2018-Feb-16 12:57N 28°09' W 015°25'0 0.0
2018-Feb-16 12:27N 28°09' W 015°25'0 0.0
2018-Feb-16 11:57N 28°09' W 015°25'0 0.0
2018-Feb-16 11:27N 28°09' W 015°25'0 0.0
2018-Feb-16 11:00N 28°09' W 015°25'0 0.0
2018-Feb-16 10:30N 28°09' W 015°25'0 0.0
2018-Feb-16 10:00N 28°09' W 015°25'0 0.0
2018-Feb-16 09:30N 28°09' W 015°25'0 0.0
2018-Feb-16 09:00N 28°09' W 015°25'0 0.0
2018-Feb-16 08:30N 28°09' W 015°25'0 0.0
2018-Feb-16 08:00N 28°09' W 015°25'0 0.0
2018-Feb-16 07:30N 28°09' W 015°25'0 0.0
2018-Feb-16 07:00N 28°09' W 015°25'0 0.0
2018-Feb-16 06:30N 28°09' W 015°25'0 0.0
2018-Feb-16 06:00N 28°09' W 015°25'0 0.0
2018-Feb-16 05:30N 28°09' W 015°25'0 0.0
2018-Feb-16 04:51N 28°09' W 015°25'0 0.0
2018-Feb-16 04:21N 28°09' W 015°25'0 0.0
2018-Feb-16 03:51N 28°09' W 015°25'0 0.0
2018-Feb-16 03:21N 28°09' W 015°25'0 0.0
2018-Feb-16 02:51N 28°09' W 015°25'0 0.0
2018-Feb-16 02:24N 28°09' W 015°25'0 0.0
2018-Feb-16 01:54N 28°09' W 015°25'0 0.0
2018-Feb-16 01:24N 28°09' W 015°25'0 0.0
2018-Feb-16 00:54N 28°09' W 015°25'0 0.0
2018-Feb-16 00:24N 28°09' W 015°25'0 0.0
2018-Feb-15 23:57N 28°09' W 015°25'0 0.0
2018-Feb-15 23:27N 28°09' W 015°25'0 0.0
2018-Feb-15 22:57N 28°09' W 015°25'0 0.0
2018-Feb-15 22:27N 28°09' W 015°25'0 0.0
2018-Feb-15 21:57N 28°09' W 015°25'0 0.0
2018-Feb-15 21:30N 28°09' W 015°25'0 0.0
2018-Feb-15 21:00N 28°09' W 015°25'0 0.0
2018-Feb-15 20:30N 28°09' W 015°25'0 0.0
2018-Feb-15 20:00N 28°09' W 015°25'0 0.0
2018-Feb-15 19:30N 28°09' W 015°25'0 0.0
2018-Feb-15 19:00N 28°09' W 015°25'0 0.0
2018-Feb-15 18:30N 28°09' W 015°25'0 0.0
2018-Feb-15 18:00N 28°09' W 015°25'0 0.0
2018-Feb-15 17:30N 28°09' W 015°25'0 0.0
2018-Feb-15 17:00N 28°09' W 015°25'0 0.0
2018-Feb-15 16:30N 28°09' W 015°25'0 0.0
2018-Feb-15 16:00N 28°09' W 015°25'0 0.0
2018-Feb-15 15:30N 28°09' W 015°25'0 0.0
2018-Feb-15 15:00N 28°09' W 015°25'0 0.0
2018-Feb-15 14:21N 28°09' W 015°25'0 0.0
2018-Feb-15 13:51N 28°09' W 015°25'0 0.0
2018-Feb-15 13:21N 28°09' W 015°25'0 0.0
2018-Feb-15 12:54N 28°09' W 015°25'0 0.0
2018-Feb-15 12:24N 28°09' W 015°25'0 0.0
2018-Feb-15 11:54N 28°09' W 015°25'0 0.0
2018-Feb-15 11:24N 28°09' W 015°25'0 0.0
2018-Feb-15 10:54N 28°09' W 015°25'0 0.0
2018-Feb-15 10:24N 28°09' W 015°25'0 0.0
2018-Feb-15 09:54N 28°09' W 015°25'0 0.0
2018-Feb-15 09:27N 28°09' W 015°25'0 0.0
2018-Feb-15 08:57N 28°09' W 015°25'0 0.0
2018-Feb-15 08:27N 28°09' W 015°25'0 0.0
2018-Feb-15 07:54N 28°09' W 015°25'0 0.0
2018-Feb-15 07:27N 28°09' W 015°25'0 0.0
2018-Feb-15 07:00N 28°09' W 015°25'0 0.0
2018-Feb-15 06:24N 28°09' W 015°25'0 0.0
2018-Feb-15 06:00N 28°09' W 015°25'0 0.0
2018-Feb-15 05:30N 28°09' W 015°25'0 0.0
2018-Feb-15 05:00N 28°09' W 015°25'0 0.0
2018-Feb-15 04:30N 28°09' W 015°25'0 0.0
2018-Feb-15 04:00N 28°09' W 015°25'0 0.0
2018-Feb-15 03:27N 28°09' W 015°25'0 0.0
2018-Feb-15 03:00N 28°09' W 015°25'0 0.0
2018-Feb-15 02:30N 28°09' W 015°25'0 0.0
2018-Feb-15 02:00N 28°09' W 015°25'0 0.0
2018-Feb-15 01:30N 28°09' W 015°25'0 0.0
2018-Feb-15 01:00N 28°09' W 015°25'0 0.0
2018-Feb-15 00:30N 28°09' W 015°25'0 0.0
2018-Feb-14 23:51N 28°09' W 015°25'0 0.0
2018-Feb-14 23:21N 28°09' W 015°25'0 0.0
2018-Feb-14 22:48N 28°09' W 015°25'0 0.0
2018-Feb-14 22:21N 28°09' W 015°25'0 0.0
2018-Feb-14 21:54N 28°09' W 015°25'0 0.0
2018-Feb-14 21:24N 28°09' W 015°25'0 0.0
2018-Feb-14 20:54N 28°09' W 015°25'0 0.0
2018-Feb-14 20:24N 28°09' W 015°25'0 0.0
2018-Feb-14 19:57N 28°09' W 015°25'0 0.0
2018-Feb-14 19:27N 28°09' W 015°25'0 0.0
2018-Feb-14 18:57N 28°09' W 015°25'0 0.0
2018-Feb-14 18:27N 28°09' W 015°25'0 0.0
2018-Feb-14 17:57N 28°09' W 015°25'0 0.0
2018-Feb-14 17:27N 28°09' W 015°25'0 0.0
2018-Feb-14 17:00N 28°09' W 015°25'0 0.0
2018-Feb-14 16:30N 28°09' W 015°25'0 0.0
2018-Feb-14 16:00N 28°09' W 015°25'0 0.0
2018-Feb-14 15:30N 28°09' W 015°25'0 0.0
2018-Feb-14 15:00N 28°09' W 015°25'0 0.0
2018-Feb-14 14:30N 28°09' W 015°25'0 0.0
2018-Feb-14 14:00N 28°09' W 015°25'0 0.0
2018-Feb-14 13:30N 28°09' W 015°25'0 0.0
2018-Feb-14 13:00N 28°09' W 015°25'0 0.0
2018-Feb-14 12:30N 28°09' W 015°25'0 0.0
2018-Feb-14 12:00N 28°09' W 015°25'0 0.0
2018-Feb-14 11:30N 28°09' W 015°25'0 0.0
2018-Feb-14 11:00N 28°09' W 015°25'0 0.0
2018-Feb-14 10:30N 28°09' W 015°25'0 0.0
2018-Feb-14 09:51N 28°09' W 015°25'0 0.0
2018-Feb-14 09:21N 28°09' W 015°25'0 0.0
2018-Feb-14 08:54N 28°09' W 015°25'0 0.0
2018-Feb-14 08:24N 28°09' W 015°25'0 0.0
2018-Feb-14 07:54N 28°09' W 015°25'0 0.0
2018-Feb-14 07:24N 28°09' W 015°25'0 0.0
2018-Feb-14 06:54N 28°09' W 015°25'0 0.0
2018-Feb-14 06:21N 28°09' W 015°25'0 0.0
2018-Feb-14 05:54N 28°09' W 015°25'0 0.0
2018-Feb-14 05:27N 28°09' W 015°25'0 0.0
2018-Feb-14 04:57N 28°09' W 015°25'0 0.0
2018-Feb-14 04:27N 28°09' W 015°25'0 0.0
2018-Feb-14 03:57N 28°09' W 015°25'0 0.0
2018-Feb-14 03:30N 28°09' W 015°25'0 0.0
2018-Feb-14 03:00N 28°09' W 015°25'0 0.0
2018-Feb-14 02:30N 28°09' W 015°25'0 0.0
2018-Feb-14 02:00N 28°09' W 015°25'0 0.0
2018-Feb-14 01:30N 28°09' W 015°25'0 0.0
2018-Feb-14 01:00N 28°09' W 015°25'0 0.0
2018-Feb-14 00:30N 28°09' W 015°25'0 0.0
2018-Feb-14 00:00N 28°09' W 015°25'0 0.0
2018-Feb-13 23:30N 28°09' W 015°25'0 0.0
2018-Feb-13 23:00N 28°09' W 015°25'0 0.0
2018-Feb-13 22:30N 28°09' W 015°25'0 0.0
2018-Feb-13 22:00N 28°09' W 015°25'0 0.0
2018-Feb-13 21:30N 28°09' W 015°25'0 0.0
2018-Feb-13 21:00N 28°09' W 015°25'0 0.0
2018-Feb-13 20:30N 28°09' W 015°25'0 0.0
2018-Feb-13 19:51N 28°09' W 015°25'0 0.0
2018-Feb-13 19:21N 28°09' W 015°25'0 0.0
2018-Feb-13 18:51N 28°09' W 015°25'0 0.0
2018-Feb-13 18:24N 28°09' W 015°25'0 0.0
2018-Feb-13 17:54N 28°09' W 015°25'0 0.0
2018-Feb-13 17:24N 28°09' W 015°25'0 0.0
2018-Feb-13 16:54N 28°09' W 015°25'0 0.0
2018-Feb-13 16:24N 28°09' W 015°25'0 0.0
2018-Feb-13 15:57N 28°09' W 015°25'0 0.0
2018-Feb-13 15:27N 28°09' W 015°25'0 0.0
2018-Feb-13 14:57N 28°09' W 015°25'0 0.0
2018-Feb-13 14:27N 28°09' W 015°25'0 0.0
2018-Feb-13 13:57N 28°09' W 015°25'0 0.0
2018-Feb-13 13:27N 28°09' W 015°25'0 0.0
2018-Feb-13 13:00N 28°09' W 015°25'0 0.0
2018-Feb-13 12:30N 28°09' W 015°25'0 0.0
2018-Feb-13 12:00N 28°09' W 015°25'0 0.0
2018-Feb-13 11:30N 28°09' W 015°25'0 0.0
2018-Feb-13 11:00N 28°09' W 015°25'0 0.0
2018-Feb-13 10:30N 28°09' W 015°25'0 0.0
2018-Feb-13 10:00N 28°09' W 015°25'0 0.0
2018-Feb-13 09:30N 28°09' W 015°25'0 0.0
2018-Feb-13 09:00N 28°09' W 015°25'0 0.0
2018-Feb-13 08:30N 28°09' W 015°25'0 0.0
2018-Feb-13 08:00N 28°09' W 015°25'0 0.0
2018-Feb-13 07:30N 28°09' W 015°25'0 0.0
2018-Feb-13 07:00N 28°09' W 015°25'0 0.0
2018-Feb-13 06:30N 28°09' W 015°25'0 0.0
2018-Feb-13 06:00N 28°09' W 015°25'0 0.0
2018-Feb-13 05:30N 28°09' W 015°25'  

Dump ship's entire track history